Wetterdaten: aktuell Montag, 04.03.2024 15:25
Datum Zeit Temp. A. Feuchte A. Luftdruck Regen Wind Richtung Richtung Taupunkt Windchill Windben
04.03.2024 15:25 13,1 C 70 % 1008,1 hPa 0,0 l/m 5,4 km/h (1 Bft) W-NW 292 7,8 C 13,1 C 14,5 km/h (3 Bft)
04.03.2024 15:20 13,1 C 70 % 1008,1 hPa 0,0 l/m 6,4 km/h (2 Bft) W-NW 289 7,8 C 13,1 C 14,5 km/h (3 Bft)
04.03.2024 15:15 13,2 C 70 % 1008,1 hPa 0,0 l/m 5,4 km/h (1 Bft) W 275 7,9 C 13,2 C 11,3 km/h (2 Bft)
04.03.2024 15:10 13,2 C 70 % 1008,2 hPa 0,0 l/m 5,7 km/h (1 Bft) N-NW 329 7,9 C 13,2 C 12,9 km/h (3 Bft)
04.03.2024 15:05 13,2 C 70 % 1008,1 hPa 0,0 l/m 5,8 km/h (2 Bft) N-NW 336 7,9 C 13,2 C 14,5 km/h (3 Bft)
04.03.2024 15:00 13,2 C 70 % 1008,2 hPa 0,0 l/m 5,5 km/h (1 Bft) NW 313 7,9 C 13,2 C 14,5 km/h (3 Bft)
04.03.2024 14:55 13,2 C 70 % 1008,2 hPa 0,0 l/m 3,2 km/h (1 Bft) NW 304 7,9 C 13,2 C 11,3 km/h (2 Bft)
04.03.2024 14:50 13,2 C 70 % 1008,2 hPa 0,0 l/m 6,3 km/h (2 Bft) S-SW 211 7,9 C 13,2 C 12,9 km/h (3 Bft)
04.03.2024 14:45 13,2 C 70 % 1008,2 hPa 0,0 l/m 4,2 km/h (1 Bft) NW 304 7,9 C 13,2 C 11,3 km/h (2 Bft)
04.03.2024 14:40 13,2 C 70 % 1008,2 hPa 0,0 l/m 5,4 km/h (1 Bft) W 262 7,9 C 13,2 C 11,3 km/h (2 Bft)
04.03.2024 14:35 13,2 C 70 % 1008,2 hPa 0,0 l/m 5,8 km/h (2 Bft) W-NW 300 7,9 C 13,2 C 12,9 km/h (3 Bft)
04.03.2024 14:30 13,1 C 70 % 1008,2 hPa 0,0 l/m 5,6 km/h (1 Bft) W-NW 299 7,8 C 13,1 C 11,3 km/h (2 Bft)
04.03.2024 14:25 13,1 C 70 % 1008,2 hPa 0,0 l/m 5,4 km/h (1 Bft) N-NW 334 7,8 C 13,1 C 14,5 km/h (3 Bft)
04.03.2024 14:20 13,1 C 69 % 1008,2 hPa 0,0 l/m 4,3 km/h (1 Bft) N-NO 22 7,5 C 13,1 C 12,9 km/h (3 Bft)
04.03.2024 14:15 13,1 C 70 % 1008,1 hPa 0,0 l/m 3,3 km/h (1 Bft) W-NW 301 7,8 C 13,1 C 9,7 km/h (2 Bft)
04.03.2024 14:10 12,9 C 70 % 1008,1 hPa 0,0 l/m 3,5 km/h (1 Bft) NW 308 7,6 C 12,9 C 6,4 km/h (2 Bft)
04.03.2024 14:05 12,9 C 70 % 1008,1 hPa 0,0 l/m 2,8 km/h (1 Bft) W-NW 298 7,6 C 12,9 C 6,4 km/h (2 Bft)
04.03.2024 14:00 12,8 C 70 % 1008,1 hPa 0,0 l/m 4,7 km/h (1 Bft) N 350 7,5 C 12,8 C 11,3 km/h (2 Bft)
04.03.2024 13:55 12,7 C 70 % 1008,1 hPa 0,0 l/m 3,6 km/h (1 Bft) W-NW 293 7,4 C 12,7 C 8,0 km/h (2 Bft)
04.03.2024 13:50 12,7 C 71 % 1008,2 hPa 0,0 l/m 1,4 km/h (1 Bft) NW 304 7,6 C 12,7 C 4,8 km/h (1 Bft)
04.03.2024 13:45 12,7 C 72 % 1008,2 hPa 0,0 l/m 4,7 km/h (1 Bft) NW 311 7,8 C 12,7 C 11,3 km/h (2 Bft)
04.03.2024 13:40 12,7 C 72 % 1008,2 hPa 0,0 l/m 4,1 km/h (1 Bft) NW 306 7,8 C 12,7 C 12,9 km/h (3 Bft)
04.03.2024 13:35 12,7 C 72 % 1008,3 hPa 0,0 l/m 4,2 km/h (1 Bft) W-NW 300 7,8 C 12,7 C 12,9 km/h (3 Bft)
04.03.2024 13:30 12,7 C 73 % 1008,3 hPa 0,0 l/m 5,0 km/h (1 Bft) SW 236 8,0 C 12,7 C 11,3 km/h (2 Bft)
04.03.2024 13:25 12,8 C 73 % 1008,3 hPa 0,0 l/m 5,0 km/h (1 Bft) NW 304 8,1 C 12,8 C 11,3 km/h (2 Bft)
04.03.2024 13:20 12,8 C 74 % 1008,3 hPa 0,0 l/m 5,6 km/h (1 Bft) W-NW 285 8,3 C 12,8 C 11,3 km/h (2 Bft)
04.03.2024 13:15 12,7 C 74 % 1008,3 hPa 0,0 l/m 3,6 km/h (1 Bft) W 276 8,2 C 12,7 C 11,3 km/h (2 Bft)
04.03.2024 13:10 12,7 C 74 % 1008,3 hPa 0,0 l/m 4,2 km/h (1 Bft) SW 215 8,2 C 12,7 C 12,9 km/h (3 Bft)
04.03.2024 13:05 12,7 C 75 % 1008,3 hPa 0,0 l/m 5,4 km/h (1 Bft) W-NW 290 8,4 C 12,7 C 14,5 km/h (3 Bft)
04.03.2024 13:00 12,5 C 75 % 1008,2 hPa 0,0 l/m 6,5 km/h (2 Bft) SW 222 8,2 C 12,5 C 11,3 km/h (2 Bft)
04.03.2024 12:55 12,4 C 76 % 1008,2 hPa 0,0 l/m 4,9 km/h (1 Bft) W 273 8,3 C 12,4 C 12,9 km/h (3 Bft)
04.03.2024 12:50 12,3 C 76 % 1008,2 hPa 0,0 l/m 5,5 km/h (1 Bft) NW 321 8,2 C 12,3 C 14,5 km/h (3 Bft)
04.03.2024 12:45 12,3 C 76 % 1008,2 hPa 0,0 l/m 4,3 km/h (1 Bft) W-NW 294 8,2 C 12,3 C 12,9 km/h (3 Bft)
04.03.2024 12:40 12,2 C 77 % 1008,2 hPa 0,0 l/m 4,9 km/h (1 Bft) W-NW 302 8,3 C 12,2 C 11,3 km/h (2 Bft)
04.03.2024 12:35 12,2 C 77 % 1008,2 hPa 0,0 l/m 5,3 km/h (1 Bft) W-NW 296 8,3 C 12,2 C 14,5 km/h (3 Bft)
04.03.2024 12:30 12,1 C 78 % 1008,1 hPa 0,0 l/m 6,0 km/h (2 Bft) W-NW 294 8,4 C 12,1 C 11,3 km/h (2 Bft)
04.03.2024 12:25 12,1 C 79 % 1008,2 hPa 0,0 l/m 5,5 km/h (1 Bft) W-NW 292 8,6 C 12,1 C 12,9 km/h (3 Bft)
04.03.2024 12:20 11,9 C 79 % 1008,1 hPa 0,0 l/m 2,9 km/h (1 Bft) W-NW 291 8,4 C 11,9 C 8,0 km/h (2 Bft)
04.03.2024 12:15 11,9 C 80 % 1008,1 hPa 0,0 l/m 2,7 km/h (1 Bft) N 351 8,6 C 11,9 C 9,7 km/h (2 Bft)
04.03.2024 12:10 11,8 C 81 % 1008,2 hPa 0,0 l/m 3,1 km/h (1 Bft) NW 309 8,6 C 11,8 C 8,0 km/h (2 Bft)
04.03.2024 12:05 11,6 C 82 % 1008,1 hPa 0,0 l/m 0,7 km/h (0 Bft) SW 220 8,6 C 11,6 C 4,8 km/h (1 Bft)
04.03.2024 12:00 11,5 C 83 % 1008,1 hPa 0,0 l/m 3,3 km/h (1 Bft) W 271 8,7 C 11,5 C 11,3 km/h (2 Bft)
04.03.2024 11:55 11,2 C 83 % 1008,2 hPa 0,0 l/m 2,9 km/h (1 Bft) W-NW 286 8,4 C 11,2 C 8,0 km/h (2 Bft)
04.03.2024 11:50 11,0 C 84 % 1008,2 hPa 0,0 l/m 1,7 km/h (1 Bft) S 189 8,4 C 11,0 C 4,8 km/h (1 Bft)
04.03.2024 11:45 10,7 C 84 % 1008,2 hPa 0,0 l/m 2,9 km/h (1 Bft) NW 319 8,1 C 10,7 C 6,4 km/h (2 Bft)
04.03.2024 11:40 10,5 C 85 % 1008,1 hPa 0,0 l/m 1,6 km/h (1 Bft) N-NW 338 8,1 C 10,5 C 4,8 km/h (1 Bft)
04.03.2024 11:35 10,3 C 85 % 1008,1 hPa 0,0 l/m 1,1 km/h (1 Bft) W-NW 297 7,9 C 10,3 C 4,8 km/h (1 Bft)
04.03.2024 11:30 10,1 C 86 % 1008,1 hPa 0,0 l/m 0,8 km/h (0 Bft) W-NW 296 7,9 C 10,1 C 3,2 km/h (1 Bft)
04.03.2024 11:25 9,9 C 87 % 1008,2 hPa 0,0 l/m 1,6 km/h (1 Bft) W-NW 296 7,8 C 9,9 C 4,8 km/h (1 Bft)
04.03.2024 11:20 9,8 C 87 % 1008,1 hPa 0,0 l/m 0,5 km/h (0 Bft) W-SW 245 7,7 C 9,8 C 3,2 km/h (1 Bft)
04.03.2024 11:15 9,6 C 88 % 1008,1 hPa 0,0 l/m 1,7 km/h (1 Bft) W-SW 245 7,7 C 9,6 C 4,8 km/h (1 Bft)
04.03.2024 11:10 9,3 C 88 % 1008,1 hPa 0,0 l/m 1,6 km/h (1 Bft) S-SW 211 7,4 C 9,3 C 4,8 km/h (1 Bft)
04.03.2024 11:05 9,1 C 89 % 1008,0 hPa 0,0 l/m 0,7 km/h (0 Bft) W 279 7,4 C 9,1 C 3,2 km/h (1 Bft)
04.03.2024 11:00 8,9 C 89 % 1008,0 hPa 0,0 l/m 0,6 km/h (0 Bft) W 279 7,2 C 8,9 C 3,2 km/h (1 Bft)
04.03.2024 10:55 8,8 C 90 % 1007,9 hPa 0,0 l/m 0,0 km/h (0 Bft) W 275 7,3 C 8,8 C 0,0 km/h (0 Bft)
04.03.2024 10:50 8,6 C 90 % 1007,9 hPa 0,0 l/m 0,0 km/h (0 Bft) W-NW 282 7,1 C 8,6 C 0,0 km/h (0 Bft)
04.03.2024 10:45 8,4 C 91 % 1007,9 hPa 0,0 l/m 0,0 km/h (0 Bft) W-NW 282 7,0 C 8,4 C 0,0 km/h (0 Bft)
04.03.2024 10:40 8,2 C 91 % 1007,9 hPa 0,0 l/m 0,0 km/h (0 Bft) W-NW 301 6,8 C 8,2 C 0,0 km/h (0 Bft)
04.03.2024 10:35 8,2 C 91 % 1007,9 hPa 0,0 l/m 0,0 km/h (0 Bft) W-NW 301 6,8 C 8,2 C 0,0 km/h (0 Bft)
04.03.2024 10:30 8,2 C 91 % 1007,9 hPa 0,0 l/m 0,0 km/h (0 Bft) W-NW 300 6,8 C 8,2 C 0,0 km/h (0 Bft)
04.03.2024 10:25 8,2 C 92 % 1007,9 hPa 0,0 l/m 0,0 km/h (0 Bft) W-NW 300 7,0 C 8,2 C 0,0 km/h (0 Bft)
04.03.2024 10:20 8,1 C 92 % 1007,9 hPa 0,0 l/m 0,0 km/h (0 Bft) W-NW 301 6,9 C 8,1 C 0,0 km/h (0 Bft)
04.03.2024 10:15 7,9 C 92 % 1007,9 hPa 0,0 l/m 0,3 km/h (0 Bft) W-NW 302 6,7 C 7,9 C 3,2 km/h (1 Bft)
04.03.2024 10:10 7,6 C 93 % 1007,9 hPa 0,0 l/m 0,3 km/h (0 Bft) W-NW 303 6,5 C 7,6 C 1,6 km/h (1 Bft)
04.03.2024 10:05 7,3 C 93 % 1007,8 hPa 0,0 l/m 0,5 km/h (0 Bft) W-NW 303 6,2 C 7,3 C 1,6 km/h (1 Bft)
04.03.2024 10:00 7,3 C 93 % 1007,7 hPa 0,0 l/m 0,0 km/h (0 Bft) W-NW 303 6,2 C 7,3 C 1,6 km/h (1 Bft)
04.03.2024 09:55 7,1 C 94 % 1007,7 hPa 0,0 l/m 0,8 km/h (0 Bft) W-NW 303 6,2 C 7,1 C 3,2 km/h (1 Bft)
04.03.2024 09:50 6,8 C 94 % 1007,6 hPa 0,0 l/m 0,2 km/h (0 Bft) W-NW 303 5,9 C 6,8 C 1,6 km/h (1 Bft)
04.03.2024 09:45 6,6 C 94 % 1007,6 hPa 0,0 l/m 0,9 km/h (0 Bft) W-NW 303 5,7 C 6,6 C 3,2 km/h (1 Bft)
04.03.2024 09:40 6,5 C 94 % 1007,6 hPa 0,0 l/m 0,2 km/h (0 Bft) W-NW 300 5,6 C 6,5 C 3,2 km/h (1 Bft)
04.03.2024 09:35 6,0 C 94 % 1007,5 hPa 0,0 l/m 0,0 km/h (0 Bft) W 261 5,1 C 6,0 C 0,0 km/h (0 Bft)
04.03.2024 09:30 5,6 C 94 % 1007,5 hPa 0,0 l/m 1,1 km/h (1 Bft) W 261 4,7 C 5,6 C 3,2 km/h (1 Bft)
04.03.2024 09:25 5,1 C 94 % 1007,4 hPa 0,0 l/m 1,0 km/h (0 Bft) W 261 4,2 C 5,1 C 3,2 km/h (1 Bft)
04.03.2024 09:20 4,6 C 94 % 1007,3 hPa 0,0 l/m 0,0 km/h (0 Bft) SO 136 3,7 C 4,6 C 1,6 km/h (1 Bft)
04.03.2024 09:15 4,2 C 94 % 1007,3 hPa 0,0 l/m 0,0 km/h (0 Bft) SO 130 3,3 C 4,2 C 0,0 km/h (0 Bft)
04.03.2024 09:10 3,9 C 94 % 1007,3 hPa 0,0 l/m 0,1 km/h (0 Bft) SO 130 3,0 C 3,9 C 1,6 km/h (1 Bft)
04.03.2024 09:05 3,8 C 94 % 1007,2 hPa 0,0 l/m 2,2 km/h (1 Bft) SO 130 2,9 C 3,8 C 4,8 km/h (1 Bft)
04.03.2024 09:00 3,6 C 94 % 1007,1 hPa 0,0 l/m 1,0 km/h (0 Bft) O-SO 123 2,7 C 3,6 C 4,8 km/h (1 Bft)
04.03.2024 08:55 3,2 C 94 % 1007,1 hPa 0,0 l/m 0,0 km/h (0 Bft) W 269 2,3 C 3,2 C 0,0 km/h (0 Bft)
04.03.2024 08:50 2,8 C 94 % 1007,0 hPa 0,0 l/m 0,0 km/h (0 Bft) W 269 1,9 C 2,8 C 0,0 km/h (0 Bft)
04.03.2024 08:45 2,4 C 94 % 1007,0 hPa 0,0 l/m 0,0 km/h (0 Bft) W 269 1,5 C 2,4 C 0,0 km/h (0 Bft)
04.03.2024 08:40 2,2 C 94 % 1007,0 hPa 0,0 l/m 0,0 km/h (0 Bft) W 269 1,3 C 2,2 C 0,0 km/h (0 Bft)
04.03.2024 08:35 2,0 C 94 % 1007,0 hPa 0,0 l/m 0,1 km/h (0 Bft) W 269 1,1 C 2,0 C 1,6 km/h (1 Bft)
04.03.2024 08:30 1,9 C 94 % 1006,9 hPa 0,0 l/m 0,0 km/h (0 Bft) W 269 1,0 C 1,9 C 1,6 km/h (1 Bft)
04.03.2024 08:25 1,8 C 94 % 1006,8 hPa 0,0 l/m 0,0 km/h (0 Bft) SO 134 0,9 C 1,8 C 0,0 km/h (0 Bft)
04.03.2024 08:20 1,7 C 94 % 1006,8 hPa 0,0 l/m 0,0 km/h (0 Bft) SO 134 0,8 C 1,7 C 0,0 km/h (0 Bft)
04.03.2024 08:15 1,7 C 94 % 1006,8 hPa 0,0 l/m 0,0 km/h (0 Bft) SO 134 0,8 C 1,7 C 0,0 km/h (0 Bft)
04.03.2024 08:10 1,6 C 94 % 1006,8 hPa 0,0 l/m 0,0 km/h (0 Bft) SO 134 0,7 C 1,6 C 0,0 km/h (0 Bft)
04.03.2024 08:05 1,5 C 93 % 1006,8 hPa 0,0 l/m 0,0 km/h (0 Bft) SO 134 0,5 C 1,5 C 0,0 km/h (0 Bft)
04.03.2024 08:00 1,3 C 94 % 1006,7 hPa 0,0 l/m 0,0 km/h (0 Bft) SO 134 0,4 C 1,3 C 0,0 km/h (0 Bft)
04.03.2024 07:55 1,2 C 94 % 1006,6 hPa 0,0 l/m 0,0 km/h (0 Bft) SO 134 0,3 C 1,2 C 0,0 km/h (0 Bft)
04.03.2024 07:50 1,2 C 93 % 1006,6 hPa 0,0 l/m 0,0 km/h (0 Bft) SO 134 0,2 C 1,2 C 0,0 km/h (0 Bft)
04.03.2024 07:45 1,3 C 93 % 1006,6 hPa 0,0 l/m 0,0 km/h (0 Bft) SO 134 0,3 C 1,3 C 0,0 km/h (0 Bft)
04.03.2024 07:40 1,3 C 93 % 1006,5 hPa 0,0 l/m 0,0 km/h (0 Bft) SO 134 0,3 C 1,3 C 0,0 km/h (0 Bft)
04.03.2024 07:35 1,4 C 93 % 1006,5 hPa 0,0 l/m 0,0 km/h (0 Bft) SO 134 0,4 C 1,4 C 0,0 km/h (0 Bft)
04.03.2024 07:30 1,4 C 93 % 1006,5 hPa 0,0 l/m 0,0 km/h (0 Bft) SO 134 0,4 C 1,4 C 0,0 km/h (0 Bft)
04.03.2024 07:25 1,4 C 93 % 1006,4 hPa 0,0 l/m 0,0 km/h (0 Bft) SO 134 0,4 C 1,4 C 0,0 km/h (0 Bft)
04.03.2024 07:20 1,3 C 93 % 1006,3 hPa 0,0 l/m 0,0 km/h (0 Bft) SO 134 0,3 C 1,3 C 0,0 km/h (0 Bft)
04.03.2024 07:15 1,4 C 93 % 1006,3 hPa 0,0 l/m 0,0 km/h (0 Bft) SO 134 0,4 C 1,4 C 0,0 km/h (0 Bft)
04.03.2024 07:10 1,4 C 93 % 1006,3 hPa 0,0 l/m 0,0 km/h (0 Bft) SO 134 0,4 C 1,4 C 0,0 km/h (0 Bft)
04.03.2024 07:05 1,4 C 93 % 1006,2 hPa 0,0 l/m 0,0 km/h (0 Bft) SO 134 0,4 C 1,4 C 0,0 km/h (0 Bft)
04.03.2024 07:00 1,3 C 93 % 1006,1 hPa 0,0 l/m 0,0 km/h (0 Bft) SO 134 0,3 C 1,3 C 0,0 km/h (0 Bft)
04.03.2024 06:55 1,1 C 93 % 1006,1 hPa 0,0 l/m 0,0 km/h (0 Bft) SO 134 0,1 C 1,1 C 0,0 km/h (0 Bft)
04.03.2024 06:50 1,1 C 93 % 1006,0 hPa 0,0 l/m 0,0 km/h (0 Bft) SO 134 0,1 C 1,1 C 0,0 km/h (0 Bft)
04.03.2024 06:45 1,2 C 93 % 1005,9 hPa 0,0 l/m 0,0 km/h (0 Bft) SO 134 0,2 C 1,2 C 0,0 km/h (0 Bft)
04.03.2024 06:40 1,2 C 93 % 1005,9 hPa 0,0 l/m 0,0 km/h (0 Bft) SO 134 0,2 C 1,2 C 0,0 km/h (0 Bft)
04.03.2024 06:35 1,3 C 93 % 1005,7 hPa 0,0 l/m 0,0 km/h (0 Bft) SO 134 0,3 C 1,3 C 0,0 km/h (0 Bft)
04.03.2024 06:30 1,3 C 93 % 1005,6 hPa 0,0 l/m 0,0 km/h (0 Bft) SO 134 0,3 C 1,3 C 0,0 km/h (0 Bft)
04.03.2024 06:25 1,3 C 93 % 1005,6 hPa 0,0 l/m 0,0 km/h (0 Bft) SO 134 0,3 C 1,3 C 0,0 km/h (0 Bft)
04.03.2024 06:20 1,3 C 93 % 1005,5 hPa 0,0 l/m 0,0 km/h (0 Bft) SO 134 0,3 C 1,3 C 0,0 km/h (0 Bft)
04.03.2024 06:15 1,3 C 93 % 1005,5 hPa 0,0 l/m 0,0 km/h (0 Bft) SO 134 0,3 C 1,3 C 0,0 km/h (0 Bft)
04.03.2024 06:10 1,3 C 93 % 1005,4 hPa 0,0 l/m 0,0 km/h (0 Bft) SO 134 0,3 C 1,3 C 0,0 km/h (0 Bft)
04.03.2024 06:05 1,3 C 93 % 1005,4 hPa 0,0 l/m 0,0 km/h (0 Bft) SO 134 0,3 C 1,3 C 0,0 km/h (0 Bft)
04.03.2024 06:00 1,4 C 93 % 1005,4 hPa 0,0 l/m 0,0 km/h (0 Bft) SO 134 0,4 C 1,4 C 0,0 km/h (0 Bft)
04.03.2024 05:55 1,5 C 93 % 1005,4 hPa 0,0 l/m 0,0 km/h (0 Bft) SO 134 0,5 C 1,5 C 0,0 km/h (0 Bft)
04.03.2024 05:50 1,5 C 92 % 1005,2 hPa 0,0 l/m 0,0 km/h (0 Bft) SO 134 0,3 C 1,5 C 0,0 km/h (0 Bft)
04.03.2024 05:45 1,6 C 93 % 1005,1 hPa 0,0 l/m 0,0 km/h (0 Bft) SO 134 0,6 C 1,6 C 0,0 km/h (0 Bft)
04.03.2024 05:40 1,6 C 93 % 1005,1 hPa 0,0 l/m 0,0 km/h (0 Bft) SO 134 0,6 C 1,6 C 0,0 km/h (0 Bft)
04.03.2024 05:35 1,7 C 92 % 1005,0 hPa 0,0 l/m 0,0 km/h (0 Bft) SO 134 0,5 C 1,7 C 0,0 km/h (0 Bft)
04.03.2024 05:30 1,8 C 92 % 1004,9 hPa 0,0 l/m 0,0 km/h (0 Bft) SO 134 0,6 C 1,8 C 0,0 km/h (0 Bft)
04.03.2024 05:25 1,8 C 92 % 1004,9 hPa 0,0 l/m 0,0 km/h (0 Bft) SO 134 0,6 C 1,8 C 0,0 km/h (0 Bft)
04.03.2024 05:20 1,8 C 92 % 1004,8 hPa 0,0 l/m 0,0 km/h (0 Bft) SO 134 0,6 C 1,8 C 0,0 km/h (0 Bft)
04.03.2024 05:15 1,9 C 92 % 1004,8 hPa 0,0 l/m 0,0 km/h (0 Bft) SO 134 0,7 C 1,9 C 0,0 km/h (0 Bft)
04.03.2024 05:10 2,0 C 92 % 1004,7 hPa 0,0 l/m 0,0 km/h (0 Bft) SO 134 0,8 C 2,0 C 0,0 km/h (0 Bft)
04.03.2024 05:05 2,1 C 92 % 1004,7 hPa 0,0 l/m 0,0 km/h (0 Bft) SO 134 0,9 C 2,1 C 0,0 km/h (0 Bft)
04.03.2024 05:00 2,2 C 92 % 1004,7 hPa 0,0 l/m 0,0 km/h (0 Bft) SO 134 1,0 C 2,2 C 0,0 km/h (0 Bft)
04.03.2024 04:55 2,3 C 92 % 1004,6 hPa 0,0 l/m 0,0 km/h (0 Bft) SO 134 1,1 C 2,3 C 0,0 km/h (0 Bft)
04.03.2024 04:50 2,3 C 92 % 1004,5 hPa 0,0 l/m 0,0 km/h (0 Bft) SO 134 1,1 C 2,3 C 0,0 km/h (0 Bft)
04.03.2024 04:45 2,3 C 92 % 1004,5 hPa 0,0 l/m 0,0 km/h (0 Bft) SO 134 1,1 C 2,3 C 0,0 km/h (0 Bft)
04.03.2024 04:40 2,3 C 92 % 1004,4 hPa 0,0 l/m 0,0 km/h (0 Bft) SO 134 1,1 C 2,3 C 0,0 km/h (0 Bft)
04.03.2024 04:35 2,3 C 92 % 1004,5 hPa 0,0 l/m 0,0 km/h (0 Bft) SO 134 1,1 C 2,3 C 0,0 km/h (0 Bft)
04.03.2024 04:30 2,3 C 92 % 1004,5 hPa 0,0 l/m 0,0 km/h (0 Bft) SO 134 1,1 C 2,3 C 0,0 km/h (0 Bft)
04.03.2024 04:25 2,3 C 92 % 1004,4 hPa 0,0 l/m 0,0 km/h (0 Bft) SO 134 1,1 C 2,3 C 0,0 km/h (0 Bft)
04.03.2024 04:20 2,2 C 92 % 1004,3 hPa 0,0 l/m 0,0 km/h (0 Bft) SO 134 1,0 C 2,2 C 0,0 km/h (0 Bft)
04.03.2024 04:15 2,1 C 92 % 1004,3 hPa 0,0 l/m 0,0 km/h (0 Bft) SO 134 0,9 C 2,1 C 0,0 km/h (0 Bft)
04.03.2024 04:10 2,1 C 92 % 1004,3 hPa 0,0 l/m 0,0 km/h (0 Bft) SO 134 0,9 C 2,1 C 0,0 km/h (0 Bft)
04.03.2024 04:05 2,2 C 91 % 1004,2 hPa 0,0 l/m 0,0 km/h (0 Bft) SO 134 0,9 C 2,2 C 0,0 km/h (0 Bft)
04.03.2024 04:00 2,2 C 91 % 1004,2 hPa 0,0 l/m 0,0 km/h (0 Bft) SO 134 0,9 C 2,2 C 0,0 km/h (0 Bft)
04.03.2024 03:55 2,2 C 92 % 1004,2 hPa 0,0 l/m 0,0 km/h (0 Bft) SO 134 1,0 C 2,2 C 0,0 km/h (0 Bft)
04.03.2024 03:50 2,3 C 91 % 1004,2 hPa 0,0 l/m 0,0 km/h (0 Bft) SO 134 1,0 C 2,3 C 0,0 km/h (0 Bft)
04.03.2024 03:45 2,3 C 91 % 1004,1 hPa 0,0 l/m 0,0 km/h (0 Bft) SO 134 1,0 C 2,3 C 0,0 km/h (0 Bft)
04.03.2024 03:40 2,4 C 91 % 1004,1 hPa 0,0 l/m 0,0 km/h (0 Bft) SO 134 1,1 C 2,4 C 0,0 km/h (0 Bft)
04.03.2024 03:35 2,4 C 91 % 1004,1 hPa 0,0 l/m 0,0 km/h (0 Bft) SO 134 1,1 C 2,4 C 0,0 km/h (0 Bft)
04.03.2024 03:30 2,6 C 91 % 1004,1 hPa 0,0 l/m 0,0 km/h (0 Bft) SO 134 1,3 C 2,6 C 0,0 km/h (0 Bft)
04.03.2024 03:25 2,7 C 91 % 1004,1 hPa 0,0 l/m 0,0 km/h (0 Bft) SO 133 1,4 C 2,7 C 0,0 km/h (0 Bft)
04.03.2024 03:20 2,7 C 91 % 1004,0 hPa 0,0 l/m 0,0 km/h (0 Bft) SO 133 1,4 C 2,7 C 0,0 km/h (0 Bft)
04.03.2024 03:15 2,7 C 91 % 1004,0 hPa 0,0 l/m 0,0 km/h (0 Bft) SO 133 1,4 C 2,7 C 0,0 km/h (0 Bft)
04.03.2024 03:10 2,7 C 91 % 1003,9 hPa 0,0 l/m 0,0 km/h (0 Bft) SO 133 1,4 C 2,7 C 0,0 km/h (0 Bft)
04.03.2024 03:05 2,7 C 91 % 1003,8 hPa 0,0 l/m 0,7 km/h (0 Bft) SO 133 1,4 C 2,7 C 3,2 km/h (1 Bft)
04.03.2024 03:00 2,8 C 91 % 1003,8 hPa 0,0 l/m 0,0 km/h (0 Bft) S 180 1,5 C 2,8 C 0,0 km/h (0 Bft)
04.03.2024 02:55 2,7 C 90 % 1003,8 hPa 0,0 l/m 0,0 km/h (0 Bft) S 181 1,2 C 2,7 C 0,0 km/h (0 Bft)
04.03.2024 02:50 2,7 C 90 % 1003,8 hPa 0,0 l/m 0,0 km/h (0 Bft) S 181 1,2 C 2,7 C 0,0 km/h (0 Bft)
04.03.2024 02:45 2,7 C 90 % 1003,7 hPa 0,0 l/m 0,0 km/h (0 Bft) S 181 1,2 C 2,7 C 0,0 km/h (0 Bft)
04.03.2024 02:40 2,8 C 90 % 1003,7 hPa 0,0 l/m 0,0 km/h (0 Bft) S 181 1,3 C 2,8 C 0,0 km/h (0 Bft)
04.03.2024 02:35 2,8 C 90 % 1003,7 hPa 0,0 l/m 0,0 km/h (0 Bft) O 101 1,3 C 2,8 C 0,0 km/h (0 Bft)
04.03.2024 02:30 2,8 C 90 % 1003,6 hPa 0,0 l/m 0,0 km/h (0 Bft) O 100 1,3 C 2,8 C 0,0 km/h (0 Bft)
04.03.2024 02:25 2,9 C 90 % 1003,6 hPa 0,0 l/m 0,0 km/h (0 Bft) O 100 1,4 C 2,9 C 0,0 km/h (0 Bft)
04.03.2024 02:20 2,9 C 90 % 1003,6 hPa 0,0 l/m 0,0 km/h (0 Bft) O 100 1,4 C 2,9 C 0,0 km/h (0 Bft)
04.03.2024 02:15 2,9 C 89 % 1003,6 hPa 0,0 l/m 0,0 km/h (0 Bft) O 100 1,3 C 2,9 C 0,0 km/h (0 Bft)
04.03.2024 02:10 2,9 C 89 % 1003,5 hPa 0,0 l/m 0,0 km/h (0 Bft) O 100 1,3 C 2,9 C 0,0 km/h (0 Bft)
04.03.2024 02:05 3,0 C 89 % 1003,5 hPa 0,0 l/m 0,0 km/h (0 Bft) O 100 1,4 C 3,0 C 0,0 km/h (0 Bft)
04.03.2024 02:00 3,1 C 89 % 1003,4 hPa 0,0 l/m 0,0 km/h (0 Bft) O 100 1,5 C 3,1 C 0,0 km/h (0 Bft)
04.03.2024 01:55 3,2 C 89 % 1003,4 hPa 0,0 l/m 0,0 km/h (0 Bft) O 100 1,6 C 3,2 C 0,0 km/h (0 Bft)
04.03.2024 01:50 3,2 C 89 % 1003,4 hPa 0,0 l/m 0,0 km/h (0 Bft) O 100 1,6 C 3,2 C 0,0 km/h (0 Bft)
04.03.2024 01:45 3,3 C 89 % 1003,4 hPa 0,0 l/m 0,0 km/h (0 Bft) O 100 1,7 C 3,3 C 0,0 km/h (0 Bft)
04.03.2024 01:40 3,3 C 89 % 1003,4 hPa 0,0 l/m 0,0 km/h (0 Bft) O 100 1,7 C 3,3 C 0,0 km/h (0 Bft)
04.03.2024 01:35 3,4 C 89 % 1003,4 hPa 0,0 l/m 0,0 km/h (0 Bft) O 100 1,8 C 3,4 C 0,0 km/h (0 Bft)
04.03.2024 01:30 3,5 C 89 % 1003,3 hPa 0,0 l/m 0,0 km/h (0 Bft) O 100 1,9 C 3,5 C 0,0 km/h (0 Bft)
04.03.2024 01:25 3,6 C 89 % 1003,3 hPa 0,0 l/m 0,0 km/h (0 Bft) O 100 2,0 C 3,6 C 0,0 km/h (0 Bft)
04.03.2024 01:20 3,7 C 89 % 1003,2 hPa 0,0 l/m 0,0 km/h (0 Bft) O 100 2,1 C 3,7 C 0,0 km/h (0 Bft)
04.03.2024 01:15 3,8 C 89 % 1003,2 hPa 0,0 l/m 0,0 km/h (0 Bft) O 100 2,2 C 3,8 C 0,0 km/h (0 Bft)
04.03.2024 01:10 3,9 C 89 % 1003,1 hPa 0,0 l/m 0,0 km/h (0 Bft) O 100 2,3 C 3,9 C 0,0 km/h (0 Bft)
04.03.2024 01:05 4,1 C 89 % 1003,1 hPa 0,0 l/m 0,0 km/h (0 Bft) O 100 2,5 C 4,1 C 0,0 km/h (0 Bft)
04.03.2024 01:00 4,2 C 89 % 1003,1 hPa 0,0 l/m 0,0 km/h (0 Bft) O 101 2,6 C 4,2 C 0,0 km/h (0 Bft)
04.03.2024 00:55 4,2 C 89 % 1003,1 hPa 0,0 l/m 0,0 km/h (0 Bft) O 101 2,6 C 4,2 C 0,0 km/h (0 Bft)
04.03.2024 00:50 4,2 C 89 % 1003,0 hPa 0,0 l/m 0,1 km/h (0 Bft) O 101 2,6 C 4,2 C 1,6 km/h (1 Bft)
04.03.2024 00:45 4,2 C 88 % 1002,9 hPa 0,0 l/m 0,0 km/h (0 Bft) O 101 2,4 C 4,2 C 0,0 km/h (0 Bft)
04.03.2024 00:40 4,3 C 88 % 1002,9 hPa 0,0 l/m 0,0 km/h (0 Bft) O 101 2,5 C 4,3 C 0,0 km/h (0 Bft)
04.03.2024 00:35 4,3 C 88 % 1002,8 hPa 0,0 l/m 0,0 km/h (0 Bft) O 101 2,5 C 4,3 C 0,0 km/h (0 Bft)
04.03.2024 00:30 4,3 C 88 % 1002,9 hPa 0,0 l/m 0,0 km/h (0 Bft) O 101 2,5 C 4,3 C 0,0 km/h (0 Bft)
04.03.2024 00:25 4,4 C 88 % 1002,8 hPa 0,0 l/m 0,0 km/h (0 Bft) O 101 2,6 C 4,4 C 0,0 km/h (0 Bft)
04.03.2024 00:20 4,4 C 87 % 1002,8 hPa 0,0 l/m 0,0 km/h (0 Bft) O 101 2,4 C 4,4 C 0,0 km/h (0 Bft)
04.03.2024 00:15 4,4 C 87 % 1002,9 hPa 0,0 l/m 0,0 km/h (0 Bft) O 101 2,4 C 4,4 C 0,0 km/h (0 Bft)
04.03.2024 00:10 4,4 C 87 % 1002,8 hPa 0,0 l/m 0,0 km/h (0 Bft) O 101 2,4 C 4,4 C 0,0 km/h (0 Bft)
04.03.2024 00:05 4,5 C 87 % 1002,7 hPa 0,0 l/m 0,0 km/h (0 Bft) O 101 2,5 C 4,5 C 0,0 km/h (0 Bft)
04.03.2024 00:00 4,6 C 86 % 1002,7 hPa 0,0 l/m 0,0 km/h (0 Bft) O 101 2,5 C 4,6 C 0,0 km/h (0 Bft)
03.03.2024 23:55 4,7 C 86 % 1002,8 hPa 0,0 l/m 0,0 km/h (0 Bft) O 101 2,6 C 4,7 C 0,0 km/h (0 Bft)
03.03.2024 23:50 4,9 C 86 % 1002,7 hPa 0,0 l/m 0,0 km/h (0 Bft) O 101 2,8 C 4,9 C 0,0 km/h (0 Bft)
03.03.2024 23:45 5,1 C 86 % 1002,7 hPa 0,0 l/m 0,0 km/h (0 Bft) O 101 3,0 C 5,1 C 0,0 km/h (0 Bft)
03.03.2024 23:40 5,2 C 86 % 1002,6 hPa 0,0 l/m 0,0 km/h (0 Bft) O 101 3,1 C 5,2 C 0,0 km/h (0 Bft)
03.03.2024 23:35 5,3 C 86 % 1002,6 hPa 0,0 l/m 0,0 km/h (0 Bft) O 101 3,2 C 5,3 C 0,0 km/h (0 Bft)
03.03.2024 23:30 5,4 C 86 % 1002,5 hPa 0,0 l/m 0,0 km/h (0 Bft) O 101 3,3 C 5,4 C 0,0 km/h (0 Bft)
03.03.2024 23:25 5,5 C 86 % 1002,6 hPa 0,0 l/m 0,0 km/h (0 Bft) O 101 3,3 C 5,5 C 0,0 km/h (0 Bft)
03.03.2024 23:20 5,6 C 86 % 1002,6 hPa 0,0 l/m 0,1 km/h (0 Bft) O 101 3,4 C 5,6 C 3,2 km/h (1 Bft)
03.03.2024 23:15 5,6 C 86 % 1002,6 hPa 0,0 l/m 0,0 km/h (0 Bft) O 101 3,4 C 5,6 C 0,0 km/h (0 Bft)
03.03.2024 23:10 5,7 C 85 % 1002,5 hPa 0,0 l/m 0,0 km/h (0 Bft) O 101 3,4 C 5,7 C 0,0 km/h (0 Bft)
03.03.2024 23:05 5,8 C 85 % 1002,4 hPa 0,0 l/m 0,0 km/h (0 Bft) O 100 3,5 C 5,8 C 0,0 km/h (0 Bft)
03.03.2024 23:00 5,9 C 85 % 1002,5 hPa 0,0 l/m 0,0 km/h (0 Bft) O 100 3,6 C 5,9 C 0,0 km/h (0 Bft)
03.03.2024 22:55 5,9 C 85 % 1002,4 hPa 0,0 l/m 0,0 km/h (0 Bft) O 100 3,6 C 5,9 C 0,0 km/h (0 Bft)
03.03.2024 22:50 6,0 C 85 % 1002,5 hPa 0,0 l/m 0,0 km/h (0 Bft) O 100 3,7 C 6,0 C 0,0 km/h (0 Bft)
03.03.2024 22:45 6,1 C 84 % 1002,4 hPa 0,0 l/m 0,0 km/h (0 Bft) O 100 3,6 C 6,1 C 0,0 km/h (0 Bft)
03.03.2024 22:40 6,3 C 84 % 1002,4 hPa 0,0 l/m 0,0 km/h (0 Bft) O 100 3,8 C 6,3 C 0,0 km/h (0 Bft)
03.03.2024 22:35 6,4 C 84 % 1002,4 hPa 0,0 l/m 0,0 km/h (0 Bft) O 100 3,9 C 6,4 C 0,0 km/h (0 Bft)
03.03.2024 22:30 6,6 C 84 % 1002,4 hPa 0,0 l/m 0,0 km/h (0 Bft) O 100 4,1 C 6,6 C 0,0 km/h (0 Bft)
03.03.2024 22:25 6,7 C 84 % 1002,4 hPa 0,0 l/m 0,0 km/h (0 Bft) O-NO 73 4,2 C 6,7 C 0,0 km/h (0 Bft)
03.03.2024 22:20 6,8 C 84 % 1002,3 hPa 0,0 l/m 0,0 km/h (0 Bft) O-NO 73 4,3 C 6,8 C 0,0 km/h (0 Bft)
03.03.2024 22:15 6,9 C 84 % 1002,3 hPa 0,0 l/m 0,0 km/h (0 Bft) O-NO 71 4,4 C 6,9 C 0,0 km/h (0 Bft)
03.03.2024 22:10 7,0 C 83 % 1002,3 hPa 0,0 l/m 0,0 km/h (0 Bft) O-NO 71 4,3 C 7,0 C 0,0 km/h (0 Bft)
03.03.2024 22:05 7,1 C 83 % 1002,3 hPa 0,0 l/m 0,0 km/h (0 Bft) O-NO 71 4,4 C 7,1 C 0,0 km/h (0 Bft)
03.03.2024 22:00 7,2 C 83 % 1002,1 hPa 0,0 l/m 0,0 km/h (0 Bft) O-NO 67 4,5 C 7,2 C 0,0 km/h (0 Bft)
03.03.2024 21:55 7,3 C 83 % 1002,1 hPa 0,0 l/m 0,0 km/h (0 Bft) O-NO 67 4,6 C 7,3 C 0,0 km/h (0 Bft)
03.03.2024 21:50 7,4 C 83 % 1002,1 hPa 0,0 l/m 0,0 km/h (0 Bft) O-NO 67 4,7 C 7,4 C 1,6 km/h (1 Bft)
03.03.2024 21:45 7,5 C 83 % 1002,0 hPa 0,0 l/m 0,3 km/h (0 Bft) O-NO 63 4,8 C 7,5 C 1,6 km/h (1 Bft)
03.03.2024 21:40 7,5 C 83 % 1002,1 hPa 0,0 l/m 0,3 km/h (0 Bft) NO 51 4,8 C 7,5 C 3,2 km/h (1 Bft)
03.03.2024 21:35 7,5 C 83 % 1002,1 hPa 0,0 l/m 0,5 km/h (0 Bft) O-NO 74 4,8 C 7,5 C 4,8 km/h (1 Bft)
03.03.2024 21:30 7,5 C 83 % 1002,0 hPa 0,0 l/m 0,7 km/h (0 Bft) NO 54 4,8 C 7,5 C 4,8 km/h (1 Bft)
03.03.2024 21:25 7,5 C 82 % 1001,9 hPa 0,0 l/m 0,5 km/h (0 Bft) O-NO 65 4,6 C 7,5 C 3,2 km/h (1 Bft)
03.03.2024 21:20 7,6 C 82 % 1001,9 hPa 0,0 l/m 0,4 km/h (0 Bft) O 91 4,7 C 7,6 C 3,2 km/h (1 Bft)
03.03.2024 21:15 7,6 C 82 % 1001,9 hPa 0,0 l/m 0,5 km/h (0 Bft) O 88 4,7 C 7,6 C 3,2 km/h (1 Bft)
03.03.2024 21:10 7,6 C 82 % 1001,8 hPa 0,0 l/m 1,5 km/h (1 Bft) O 95 4,7 C 7,6 C 6,4 km/h (2 Bft)
03.03.2024 21:05 7,7 C 81 % 1001,9 hPa 0,0 l/m 0,7 km/h (0 Bft) O 98 4,7 C 7,7 C 4,8 km/h (1 Bft)
03.03.2024 21:00 7,7 C 81 % 1001,9 hPa 0,0 l/m 1,2 km/h (1 Bft) O-SO 105 4,7 C 7,7 C 6,4 km/h (2 Bft)
03.03.2024 20:55 7,8 C 81 % 1001,9 hPa 0,0 l/m 2,1 km/h (1 Bft) O 91 4,7 C 7,8 C 4,8 km/h (1 Bft)
03.03.2024 20:50 7,9 C 81 % 1001,9 hPa 0,0 l/m 1,1 km/h (1 Bft) O-NO 67 4,8 C 7,9 C 3,2 km/h (1 Bft)
03.03.2024 20:45 8,1 C 80 % 1001,8 hPa 0,0 l/m 0,9 km/h (0 Bft) O-SO 104 4,9 C 8,1 C 6,4 km/h (2 Bft)
03.03.2024 20:40 8,2 C 80 % 1001,8 hPa 0,0 l/m 0,7 km/h (0 Bft) O 100 5,0 C 8,2 C 4,8 km/h (1 Bft)
03.03.2024 20:35 8,2 C 80 % 1001,8 hPa 0,0 l/m 0,7 km/h (0 Bft) O-SO 105 5,0 C 8,2 C 4,8 km/h (1 Bft)
03.03.2024 20:30 8,3 C 80 % 1001,8 hPa 0,0 l/m 1,8 km/h (1 Bft) NO 55 5,1 C 8,3 C 4,8 km/h (1 Bft)
03.03.2024 20:25 8,5 C 79 % 1001,8 hPa 0,0 l/m 1,7 km/h (1 Bft) O 99 5,1 C 8,5 C 6,4 km/h (2 Bft)
03.03.2024 20:20 8,6 C 79 % 1001,8 hPa 0,0 l/m 1,7 km/h (1 Bft) O-SO 110 5,2 C 8,6 C 4,8 km/h (1 Bft)
03.03.2024 20:15 8,7 C 79 % 1001,8 hPa 0,0 l/m 2,3 km/h (1 Bft) O 101 5,3 C 8,7 C 6,4 km/h (2 Bft)
03.03.2024 20:10 8,8 C 78 % 1001,8 hPa 0,0 l/m 1,4 km/h (1 Bft) O-SO 117 5,2 C 8,8 C 4,8 km/h (1 Bft)
03.03.2024 20:05 8,9 C 78 % 1001,7 hPa 0,0 l/m 2,3 km/h (1 Bft) O-SO 103 5,3 C 8,9 C 6,4 km/h (2 Bft)
03.03.2024 20:00 9,1 C 78 % 1001,7 hPa 0,0 l/m 1,7 km/h (1 Bft) O 84 5,5 C 9,1 C 6,4 km/h (2 Bft)
03.03.2024 19:55 9,1 C 78 % 1001,7 hPa 0,0 l/m 0,7 km/h (0 Bft) O-SO 109 5,5 C 9,1 C 3,2 km/h (1 Bft)
03.03.2024 19:50 9,1 C 77 % 1001,6 hPa 0,0 l/m 1,7 km/h (1 Bft) O-NO 57 5,3 C 9,1 C 6,4 km/h (2 Bft)
03.03.2024 19:45 9,1 C 77 % 1001,7 hPa 0,0 l/m 2,1 km/h (1 Bft) NO 42 5,3 C 9,1 C 4,8 km/h (1 Bft)
03.03.2024 19:40 9,2 C 76 % 1001,7 hPa 0,0 l/m 1,9 km/h (1 Bft) O-SO 113 5,2 C 9,2 C 6,4 km/h (2 Bft)
03.03.2024 19:35 9,2 C 76 % 1001,6 hPa 0,0 l/m 1,4 km/h (1 Bft) O-SO 113 5,2 C 9,2 C 6,4 km/h (2 Bft)
03.03.2024 19:30 9,2 C 76 % 1001,6 hPa 0,0 l/m 2,2 km/h (1 Bft) O-NO 78 5,2 C 9,2 C 6,4 km/h (2 Bft)
03.03.2024 19:25 9,3 C 75 % 1001,5 hPa 0,0 l/m 1,7 km/h (1 Bft) O-SO 109 5,1 C 9,3 C 4,8 km/h (1 Bft)
03.03.2024 19:20 9,4 C 75 % 1001,5 hPa 0,0 l/m 1,5 km/h (1 Bft) O 90 5,2 C 9,4 C 6,4 km/h (2 Bft)
03.03.2024 19:15 9,4 C 74 % 1001,4 hPa 0,0 l/m 1,4 km/h (1 Bft) O-SO 107 5,0 C 9,4 C 4,8 km/h (1 Bft)
03.03.2024 19:10 9,6 C 74 % 1001,4 hPa 0,0 l/m 2,5 km/h (1 Bft) O-SO 103 5,2 C 9,6 C 4,8 km/h (1 Bft)
03.03.2024 19:05 9,6 C 74 % 1001,3 hPa 0,0 l/m 2,9 km/h (1 Bft) O-SO 105 5,2 C 9,6 C 4,8 km/h (1 Bft)
03.03.2024 19:00 9,7 C 73 % 1001,3 hPa 0,0 l/m 2,1 km/h (1 Bft) O-SO 109 5,1 C 9,7 C 6,4 km/h (2 Bft)
03.03.2024 18:55 9,8 C 73 % 1001,2 hPa 0,0 l/m 2,5 km/h (1 Bft) O 91 5,2 C 9,8 C 6,4 km/h (2 Bft)
03.03.2024 18:50 9,8 C 72 % 1001,3 hPa 0,0 l/m 3,0 km/h (1 Bft) O 93 5,0 C 9,8 C 9,7 km/h (2 Bft)
03.03.2024 18:45 10,0 C 72 % 1001,2 hPa 0,0 l/m 2,4 km/h (1 Bft) O-SO 113 5,2 C 10,0 C 4,8 km/h (1 Bft)
03.03.2024 18:40 10,1 C 72 % 1001,2 hPa 0,0 l/m 2,4 km/h (1 Bft) O 100 5,3 C 10,1 C 4,8 km/h (1 Bft)
03.03.2024 18:35 10,3 C 71 % 1001,2 hPa 0,0 l/m 1,3 km/h (1 Bft) O 100 5,3 C 10,3 C 4,8 km/h (1 Bft)
03.03.2024 18:30 10,4 C 71 % 1001,2 hPa 0,0 l/m 0,7 km/h (0 Bft) NO 44 5,4 C 10,4 C 3,2 km/h (1 Bft)
03.03.2024 18:25 10,6 C 70 % 1001,1 hPa 0,0 l/m 0,8 km/h (0 Bft) O-NO 78 5,4 C 10,6 C 4,8 km/h (1 Bft)
03.03.2024 18:20 10,7 C 70 % 1001,0 hPa 0,0 l/m 1,7 km/h (1 Bft) O 87 5,5 C 10,7 C 4,8 km/h (1 Bft)
03.03.2024 18:15 10,9 C 69 % 1001,0 hPa 0,0 l/m 2,3 km/h (1 Bft) O 99 5,4 C 10,9 C 6,4 km/h (2 Bft)
03.03.2024 18:10 11,2 C 69 % 1000,9 hPa 0,0 l/m 1,0 km/h (0 Bft) O 80 5,7 C 11,2 C 3,2 km/h (1 Bft)
03.03.2024 18:05 11,3 C 69 % 1000,8 hPa 0,0 l/m 0,0 km/h (0 Bft) O 101 5,8 C 11,3 C 0,0 km/h (0 Bft)
03.03.2024 18:00 11,6 C 69 % 1000,8 hPa 0,0 l/m 0,0 km/h (0 Bft) O-SO 103 6,1 C 11,6 C 0,0 km/h (0 Bft)
03.03.2024 17:55 11,7 C 68 % 1000,8 hPa 0,0 l/m 0,5 km/h (0 Bft) O 80 6,0 C 11,7 C 3,2 km/h (1 Bft)
03.03.2024 17:50 11,9 C 68 % 1000,7 hPa 0,0 l/m 0,1 km/h (0 Bft) O-NO 60 6,2 C 11,9 C 1,6 km/h (1 Bft)
03.03.2024 17:45 12,1 C 68 % 1000,7 hPa 0,0 l/m 0,6 km/h (0 Bft) O 79 6,4 C 12,1 C 3,2 km/h (1 Bft)
03.03.2024 17:40 12,2 C 67 % 1000,7 hPa 0,0 l/m 0,3 km/h (0 Bft) O-NO 59 6,3 C 12,2 C 3,2 km/h (1 Bft)
03.03.2024 17:35 12,3 C 68 % 1000,6 hPa 0,0 l/m 0,9 km/h (0 Bft) O-NO 59 6,6 C 12,3 C 6,4 km/h (2 Bft)
03.03.2024 17:30 12,4 C 67 % 1000,5 hPa 0,0 l/m 3,2 km/h (1 Bft) O-SO 103 6,4 C 12,4 C 9,7 km/h (2 Bft)
03.03.2024 17:25 12,6 C 67 % 1000,5 hPa 0,0 l/m 1,6 km/h (1 Bft) O-NO 60 6,6 C 12,6 C 4,8 km/h (1 Bft)
03.03.2024 17:20 12,7 C 67 % 1000,5 hPa 0,0 l/m 0,3 km/h (0 Bft) O-SO 109 6,7 C 12,7 C 3,2 km/h (1 Bft)
03.03.2024 17:15 12,8 C 66 % 1000,5 hPa 0,0 l/m 1,2 km/h (1 Bft) O 84 6,6 C 12,8 C 4,8 km/h (1 Bft)
03.03.2024 17:10 12,9 C 66 % 1000,5 hPa 0,0 l/m 2,7 km/h (1 Bft) O-NO 57 6,7 C 12,9 C 8,0 km/h (2 Bft)
03.03.2024 17:05 12,9 C 65 % 1000,3 hPa 0,0 l/m 1,6 km/h (1 Bft) NO 53 6,5 C 12,9 C 4,8 km/h (1 Bft)
03.03.2024 17:00 13,1 C 64 % 1000,3 hPa 0,0 l/m 2,7 km/h (1 Bft) NO 56 6,4 C 13,1 C 8,0 km/h (2 Bft)
03.03.2024 16:55 13,2 C 64 % 1000,3 hPa 0,0 l/m 1,6 km/h (1 Bft) O-SO 114 6,5 C 13,2 C 4,8 km/h (1 Bft)
03.03.2024 16:50 13,3 C 63 % 1000,3 hPa 0,0 l/m 1,0 km/h (0 Bft) NO 54 6,4 C 13,3 C 3,2 km/h (1 Bft)
03.03.2024 16:45 13,4 C 62 % 1000,3 hPa 0,0 l/m 3,1 km/h (1 Bft) O 99 6,3 C 13,4 C 6,4 km/h (2 Bft)
03.03.2024 16:40 13,5 C 62 % 1000,3 hPa 0,0 l/m 4,5 km/h (1 Bft) SO 135 6,4 C 13,5 C 11,3 km/h (2 Bft)
03.03.2024 16:35 13,6 C 62 % 1000,4 hPa 0,0 l/m 5,6 km/h (1 Bft) O-SO 110 6,5 C 13,6 C 11,3 km/h (2 Bft)
03.03.2024 16:30 13,8 C 61 % 1000,5 hPa 0,0 l/m 4,5 km/h (1 Bft) SO 145 6,4 C 13,8 C 14,5 km/h (3 Bft)
03.03.2024 16:25 13,9 C 61 % 1000,5 hPa 0,0 l/m 6,3 km/h (2 Bft) O-SO 120 6,5 C 13,9 C 14,5 km/h (3 Bft)
03.03.2024 16:20 14,1 C 61 % 1000,5 hPa 0,0 l/m 5,9 km/h (2 Bft) SO 134 6,7 C 14,1 C 17,7 km/h (3 Bft)
03.03.2024 16:15 14,2 C 61 % 1000,4 hPa 0,0 l/m 8,9 km/h (2 Bft) O-SO 112 6,8 C 14,2 C 17,7 km/h (3 Bft)
03.03.2024 16:10 14,3 C 61 % 1000,4 hPa 0,0 l/m 6,0 km/h (2 Bft) SO 146 6,9 C 14,3 C 12,9 km/h (3 Bft)
03.03.2024 16:05 14,3 C 61 % 1000,3 hPa 0,0 l/m 7,0 km/h (2 Bft) O-SO 117 6,9 C 14,3 C 16,1 km/h (3 Bft)
03.03.2024 16:00 14,3 C 60 % 1000,2 hPa 0,0 l/m 7,9 km/h (2 Bft) SO 134 6,6 C 14,3 C 16,1 km/h (3 Bft)
_ Min-Zeit 06:50 16:00 16:00 - 18:00 - - 06:50 06:50 18:00
Minimum _ 1,1 C 60 % 1000,2 hPa - 0,0 km/h (0 Bft) - - 0,1 C 1,1 C 0,0 km/h (0 Bft)
_ Max-Zeit 16:00 07:55 13:05 16:00 16:15 - - 12:00 16:00 16:15
Maximum _ 14,3 C 94 % 1008,3 hPa 0,0 l/m 8,9 km/h
O-SO (2 Bft)
- - 8,7 C 14,3 C 17,7 km/h
S-SO (3 Bft)
Durchschnitt _ 7,5 C 81 % 1004,2 hPa #0,0 l/m 1,8 km/h (1 Bft) W-NW - 4,4 C 7,5 C 4,6 km/h (1 Bft)